createdAt,value
2023-03-22T00:00:42.957Z,4.58
2023-03-22T00:03:12.844Z,4.40
2023-03-22T00:05:41.343Z,4.82
2023-03-22T00:08:10.043Z,5.12
2023-03-22T00:10:39.770Z,4.67
2023-03-22T00:13:12.614Z,4.93
2023-03-22T00:15:45.537Z,4.92
2023-03-22T00:18:15.886Z,4.70
2023-03-22T00:20:52.169Z,4.25
2023-03-22T00:23:21.171Z,4.94
2023-03-22T00:25:51.373Z,4.97
2023-03-22T00:28:21.771Z,4.95
2023-03-22T00:30:55.464Z,4.17
2023-03-22T00:33:29.202Z,4.94
2023-03-22T00:36:01.919Z,4.37
2023-03-22T00:38:44.833Z,4.66
2023-03-22T00:41:17.268Z,4.55
2023-03-22T00:43:48.742Z,3.92
2023-03-22T00:46:19.963Z,4.46
2023-03-22T00:48:49.638Z,4.63
2023-03-22T00:51:18.731Z,4.89
2023-03-22T00:53:53.181Z,4.65
2023-03-22T00:56:22.958Z,4.35
2023-03-22T00:59:13.394Z,4.70
2023-03-22T01:01:43.302Z,4.73
2023-03-22T01:04:15.347Z,4.69
2023-03-22T01:06:47.060Z,4.66
2023-03-22T01:09:15.886Z,4.62
2023-03-22T01:11:46.155Z,4.35
2023-03-22T01:14:16.191Z,4.47
2023-03-22T01:16:44.685Z,3.69
2023-03-22T01:19:13.356Z,4.35
2023-03-22T01:21:41.831Z,3.96
2023-03-22T01:24:10.693Z,4.72
2023-03-22T01:26:40.768Z,3.87
2023-03-22T01:29:09.172Z,4.89
2023-03-22T01:31:42.596Z,4.84
2023-03-22T01:34:13.024Z,4.85
2023-03-22T01:36:41.698Z,3.99
2023-03-22T01:39:10.706Z,4.59
2023-03-22T01:41:41.232Z,4.95
2023-03-22T01:44:20.871Z,4.09
2023-03-22T01:46:53.275Z,4.19
2023-03-22T01:49:28.800Z,4.63
2023-03-22T01:52:01.785Z,5.21
2023-03-22T01:54:55.097Z,5.04
2023-03-22T01:57:37.756Z,5.00
2023-03-22T02:00:15.975Z,5.21
2023-03-22T02:03:26.189Z,4.49
2023-03-22T02:05:56.069Z,4.71
2023-03-22T02:08:33.940Z,5.13
2023-03-22T02:11:11.276Z,5.54
2023-03-22T02:14:05.588Z,5.76
2023-03-22T02:17:11.445Z,5.66
2023-03-22T02:20:53.210Z,5.97
2023-03-22T02:24:03.126Z,6.01
2023-03-22T02:27:27.013Z,5.71
2023-03-22T02:30:18.104Z,5.17
2023-03-22T02:33:24.565Z,6.22
2023-03-22T02:36:32.815Z,5.18
2023-03-22T02:39:23.927Z,6.28
2023-03-22T02:42:21.391Z,6.26
2023-03-22T02:45:03.012Z,6.25
2023-03-22T02:47:41.631Z,6.46
2023-03-22T02:50:17.457Z,6.59
2023-03-22T02:52:52.748Z,6.47
2023-03-22T02:55:34.098Z,6.51
2023-03-22T02:58:11.532Z,6.33
2023-03-22T03:00:42.688Z,6.65
2023-03-22T03:03:18.399Z,6.63
2023-03-22T03:05:52.754Z,6.62
2023-03-22T03:08:24.015Z,6.68
2023-03-22T03:10:56.269Z,6.24
2023-03-22T03:13:24.802Z,6.33
2023-03-22T03:16:01.816Z,6.12
2023-03-22T03:18:49.133Z,6.60
2023-03-22T03:21:35.162Z,6.40
2023-03-22T03:24:22.728Z,6.24
2023-03-22T03:27:00.391Z,6.22
2023-03-22T03:29:39.762Z,6.20
2023-03-22T03:32:16.713Z,6.17
2023-03-22T03:34:52.817Z,6.19
2023-03-22T03:37:26.347Z,5.76
2023-03-22T03:40:04.831Z,5.78
2023-03-22T03:42:39.989Z,6.19
2023-03-22T03:45:10.505Z,6.16
2023-03-22T03:47:45.804Z,6.00
2023-03-22T03:50:16.799Z,6.15
2023-03-22T03:52:53.813Z,6.19
2023-03-22T03:55:23.690Z,5.48
2023-03-22T03:57:53.553Z,6.03
2023-03-22T04:00:21.918Z,5.97
2023-03-22T04:03:13.843Z,5.91
2023-03-22T04:05:56.898Z,5.87
2023-03-22T04:08:25.340Z,5.99
2023-03-22T04:10:54.168Z,5.89
2023-03-22T04:13:25.169Z,5.86
2023-03-22T04:15:57.491Z,5.96
2023-03-22T04:18:27.708Z,5.88
2023-03-22T04:20:57.134Z,5.83
2023-03-22T04:23:26.489Z,5.81
2023-03-22T04:25:54.914Z,5.95
2023-03-22T04:28:36.144Z,5.86
2023-03-22T04:31:04.550Z,5.75
2023-03-22T04:33:56.676Z,5.95
2023-03-22T04:36:36.602Z,6.20
2023-03-22T04:39:20.299Z,5.99
2023-03-22T04:41:57.683Z,6.15
2023-03-22T04:44:28.056Z,6.22
2023-03-22T04:46:56.936Z,6.04
2023-03-22T04:49:26.770Z,6.13
2023-03-22T04:51:56.483Z,5.83
2023-03-22T04:54:33.378Z,6.08
2023-03-22T04:57:02.678Z,6.08
2023-03-22T04:59:36.995Z,6.07
2023-03-22T05:02:05.820Z,6.01
2023-03-22T05:04:41.673Z,5.98
2023-03-22T05:07:30.288Z,5.95
2023-03-22T05:10:00.781Z,5.91
2023-03-22T05:12:29.886Z,5.69
2023-03-22T05:15:06.177Z,5.68
2023-03-22T05:17:37.937Z,5.80
2023-03-22T05:20:10.298Z,5.91
2023-03-22T05:22:40.938Z,5.62
2023-03-22T05:25:12.014Z,5.89
2023-03-22T05:27:44.560Z,5.53
2023-03-22T05:30:33.799Z,5.66
2023-03-22T05:33:13.240Z,5.53
2023-03-22T05:35:46.430Z,5.74
2023-03-22T05:38:16.976Z,5.72
2023-03-22T05:40:50.787Z,5.87
2023-03-22T05:43:19.556Z,5.82
2023-03-22T05:45:53.052Z,5.54
2023-03-22T05:48:37.095Z,5.53
2023-03-22T05:51:08.608Z,5.75
2023-03-22T05:53:37.556Z,5.51
2023-03-22T05:56:11.759Z,5.63
2023-03-22T05:58:42.289Z,5.64
2023-03-22T06:01:19.392Z,5.69
2023-03-22T06:03:48.513Z,5.71
2023-03-22T06:06:43.179Z,5.77
2023-03-22T06:09:18.258Z,5.62
2023-03-22T06:11:51.211Z,5.70
2023-03-22T06:14:21.200Z,5.72
2023-03-22T06:17:03.835Z,5.83
2023-03-22T06:19:32.281Z,5.84
2023-03-22T06:22:03.809Z,5.84
2023-03-22T06:24:34.851Z,6.18
2023-03-22T06:27:04.178Z,6.20
2023-03-22T06:29:33.525Z,6.33
2023-03-22T06:32:06.288Z,6.79
2023-03-22T06:34:35.374Z,6.99
2023-03-22T06:37:04.294Z,7.09
2023-03-22T06:39:36.063Z,7.04
2023-03-22T06:42:04.953Z,7.05
2023-03-22T06:44:34.081Z,6.87
2023-03-22T06:47:22.398Z,6.95
2023-03-22T06:49:59.789Z,6.91
2023-03-22T06:52:43.163Z,6.81
2023-03-22T06:55:11.902Z,6.76
2023-03-22T06:57:40.783Z,6.72
2023-03-22T07:00:13.067Z,6.75
2023-03-22T07:02:42.777Z,6.89
2023-03-22T07:05:33.770Z,6.86
2023-03-22T07:08:02.157Z,6.75
2023-03-22T07:10:31.045Z,6.77
2023-03-22T07:13:00.607Z,7.19
2023-03-22T07:15:29.104Z,6.98
2023-03-22T07:18:21.703Z,7.19
2023-03-22T07:20:50.216Z,7.02
2023-03-22T07:23:19.309Z,6.98
2023-03-22T07:25:53.508Z,6.95
2023-03-22T07:28:29.344Z,7.06
2023-03-22T07:31:02.969Z,7.25
2023-03-22T07:33:38.667Z,7.41
2023-03-22T07:36:10.388Z,7.60
2023-03-22T07:38:39.342Z,7.90
2023-03-22T07:41:12.354Z,7.91
2023-03-22T07:44:07.761Z,7.82
2023-03-22T07:46:47.939Z,7.71
2023-03-22T07:49:25.423Z,7.63
2023-03-22T07:52:13.026Z,7.66
2023-03-22T07:54:42.291Z,7.63
2023-03-22T07:57:11.238Z,7.68
2023-03-22T07:59:48.401Z,8.00
2023-03-22T08:02:17.195Z,8.05
2023-03-22T08:04:55.719Z,8.07
2023-03-22T08:07:45.035Z,8.22
2023-03-22T08:10:14.758Z,8.41
2023-03-22T08:12:43.238Z,8.19
2023-03-22T08:15:22.681Z,8.45
2023-03-22T08:17:58.984Z,8.32
2023-03-22T08:20:35.761Z,8.51
2023-03-22T08:23:12.153Z,8.54
2023-03-22T08:25:58.972Z,8.53
2023-03-22T08:28:27.625Z,8.55
2023-03-22T08:30:56.051Z,8.30
2023-03-22T08:33:25.361Z,8.35
2023-03-22T08:36:08.761Z,8.26
2023-03-22T08:38:45.206Z,8.53
2023-03-22T08:41:17.152Z,8.62
2023-03-22T08:43:45.615Z,8.52
2023-03-22T08:46:14.135Z,8.55
2023-03-22T08:48:50.479Z,8.77
2023-03-22T08:51:31.331Z,8.81
2023-03-22T08:54:20.315Z,8.72
2023-03-22T08:56:54.887Z,8.66
2023-03-22T08:59:37.115Z,8.27
2023-03-22T09:02:32.126Z,8.15
2023-03-22T09:05:01.195Z,8.38
2023-03-22T09:07:31.139Z,8.31
2023-03-22T09:10:17.780Z,8.15
2023-03-22T09:12:49.188Z,7.97
2023-03-22T09:15:18.154Z,7.93
2023-03-22T09:17:53.588Z,7.63
2023-03-22T09:20:25.402Z,7.97
2023-03-22T09:22:55.467Z,8.05
2023-03-22T09:25:24.371Z,8.06
2023-03-22T09:27:53.889Z,8.13
2023-03-22T09:30:22.734Z,7.93
2023-03-22T09:32:51.377Z,7.95
2023-03-22T09:35:20.062Z,7.97
2023-03-22T09:38:06.117Z,8.06
2023-03-22T09:40:36.295Z,7.84
2023-03-22T09:43:10.277Z,7.61
2023-03-22T09:45:42.367Z,7.41
2023-03-22T09:48:19.401Z,7.25
2023-03-22T09:50:52.472Z,7.20
2023-03-22T09:53:27.673Z,7.06
2023-03-22T09:56:02.778Z,7.25
2023-03-22T09:58:37.312Z,7.25
2023-03-22T10:01:16.319Z,7.23
2023-03-22T10:04:26.439Z,7.22
2023-03-22T10:07:07.505Z,7.28
2023-03-22T10:09:46.415Z,7.28
2023-03-22T10:12:24.387Z,7.30
2023-03-22T10:15:05.169Z,7.19
2023-03-22T10:17:34.343Z,7.17
2023-03-22T10:20:09.553Z,7.26
2023-03-22T10:22:45.367Z,7.14
2023-03-22T10:25:20.754Z,7.41
2023-03-22T10:27:53.099Z,7.29
2023-03-22T10:30:24.118Z,7.41
2023-03-22T10:32:59.361Z,7.44
2023-03-22T10:35:29.611Z,7.41
2023-03-22T10:38:02.896Z,7.35
2023-03-22T10:40:35.347Z,7.12
2023-03-22T10:43:09.111Z,7.19
2023-03-22T10:45:38.937Z,7.28
2023-03-22T10:48:12.814Z,7.35
2023-03-22T10:50:46.165Z,7.43
2023-03-22T10:53:25.818Z,7.47
2023-03-22T10:55:55.656Z,7.84
2023-03-22T10:58:29.524Z,7.84
2023-03-22T11:01:01.081Z,8.00
2023-03-22T11:03:37.284Z,8.04
2023-03-22T11:06:11.192Z,8.61
2023-03-22T11:08:46.775Z,8.28
2023-03-22T11:11:23.504Z,8.43
2023-03-22T11:14:04.033Z,8.55
2023-03-22T11:16:42.150Z,8.34
2023-03-22T11:19:18.605Z,8.49
2023-03-22T11:21:47.125Z,8.40
2023-03-22T11:24:16.368Z,8.31
2023-03-22T11:27:05.776Z,8.31
2023-03-22T11:29:44.190Z,8.33
2023-03-22T11:32:27.171Z,8.17
2023-03-22T11:35:06.859Z,8.37
2023-03-22T11:37:41.630Z,8.35
2023-03-22T11:40:16.964Z,8.32
2023-03-22T11:42:47.890Z,8.52
2023-03-22T11:45:21.762Z,8.43
2023-03-22T11:47:50.235Z,8.69
2023-03-22T11:50:29.311Z,8.08
2023-03-22T11:52:58.217Z,8.32
2023-03-22T11:55:27.552Z,8.43
2023-03-22T11:57:58.694Z,8.30
2023-03-22T12:00:30.813Z,8.20
2023-03-22T12:03:04.747Z,8.42
2023-03-22T12:05:35.400Z,8.33
2023-03-22T12:08:12.831Z,7.99
2023-03-22T12:10:44.762Z,8.06
2023-03-22T12:13:22.415Z,8.10
2023-03-22T12:15:56.324Z,8.23
2023-03-22T12:18:30.737Z,8.07
2023-03-22T12:21:01.648Z,8.43
2023-03-22T12:23:32.667Z,8.39
2023-03-22T12:26:06.444Z,8.44
2023-03-22T12:28:42.605Z,8.38
2023-03-22T12:31:18.870Z,8.40
2023-03-22T12:33:52.010Z,8.36
2023-03-22T12:36:28.198Z,8.30
2023-03-22T12:38:59.734Z,8.16
2023-03-22T12:41:34.980Z,8.04
2023-03-22T12:44:11.818Z,8.27
2023-03-22T12:46:51.589Z,8.06
2023-03-22T12:49:28.969Z,8.37
2023-03-22T12:52:12.580Z,8.26
2023-03-22T12:54:43.104Z,8.41
2023-03-22T12:57:12.828Z,8.45
2023-03-22T12:59:46.353Z,8.55
2023-03-22T13:02:19.464Z,8.50
2023-03-22T13:04:53.933Z,8.46
2023-03-22T13:07:51.514Z,8.37
2023-03-22T13:11:07.173Z,8.52
2023-03-22T13:13:46.596Z,8.56
2023-03-22T13:16:25.504Z,8.41
2023-03-22T13:19:17.972Z,8.45
2023-03-22T13:21:50.386Z,8.72
2023-03-22T13:24:24.088Z,8.62
2023-03-22T13:26:55.594Z,8.70
2023-03-22T13:29:26.658Z,8.73
2023-03-22T13:32:00.490Z,8.76
2023-03-22T13:34:38.729Z,8.87
2023-03-22T13:37:12.714Z,8.87
2023-03-22T13:39:42.193Z,9.02
2023-03-22T13:42:21.575Z,8.77
2023-03-22T13:45:00.062Z,8.56
2023-03-22T13:47:37.935Z,8.77
2023-03-22T13:50:18.017Z,8.40
2023-03-22T13:52:55.983Z,8.44
2023-03-22T13:55:58.270Z,8.56
2023-03-22T13:58:49.476Z,8.44
2023-03-22T14:01:28.263Z,8.35
2023-03-22T14:04:03.383Z,8.49
2023-03-22T14:06:36.220Z,8.67
2023-03-22T14:09:14.846Z,8.68
2023-03-22T14:11:49.825Z,8.55
2023-03-22T14:14:23.944Z,8.72
2023-03-22T14:16:59.316Z,8.55
2023-03-22T14:19:33.112Z,8.76
